Terminal Aerodrome Forecast
Issued by NWS

Home | Current Version | Previous Version | Text Only | Print | Product List | Glossary On
Versions: 1 2 3 4 5 6 7 8 9 10 11 12 13 14 15 16 17 18 19 20 21 22 23 24 25 26 27 28 29 30 31 32
000
FTUS44 KHGX 250707 AAA
TAFCXO
TAF AMD
KCXO 250707Z 2507/2606 22003KT P6SM VCTS BKN022CB OVC040
      TEMPO 2507/2508 VRB10G25KT 5SM TSRA BR BKN015CB
     FM250800 02007KT P6SM BKN050 BKN200
     FM251100 04008KT P6SM -SHRA BKN025 OVC050
     FM251500 06008KT P6SM VCSH BKN020 OVC040
     FM251800 07007KT 6SM -SHRA BR BKN015 OVC025
     FM260300 02003KT 4SM BR BKN008 BKN015=

USA.gov is the U.S. government's official web portal to all federal, state and local government web resources and services.